sensor_id;sensor_type;location;lat;lon;timestamp;P1;durP1;ratioP1;P2;durP2;ratioP2
5507;SDS011;2776;51.046;6.772;2022-12-01T00:00:05;23.90;;;14.13;;
5507;SDS011;2776;51.046;6.772;2022-12-01T00:02:33;22.73;;;14.87;;
5507;SDS011;2776;51.046;6.772;2022-12-01T00:05:00;23.57;;;14.00;;
5507;SDS011;2776;51.046;6.772;2022-12-01T00:07:27;24.90;;;14.17;;
5507;SDS011;2776;51.046;6.772;2022-12-01T00:09:55;21.77;;;13.87;;
5507;SDS011;2776;51.046;6.772;2022-12-01T00:12:39;23.30;;;13.50;;
5507;SDS011;2776;51.046;6.772;2022-12-01T00:15:07;25.83;;;14.83;;
5507;SDS011;2776;51.046;6.772;2022-12-01T00:17:34;23.43;;;14.03;;
5507;SDS011;2776;51.046;6.772;2022-12-01T00:20:01;25.23;;;14.07;;
5507;SDS011;2776;51.046;6.772;2022-12-01T00:22:29;21.63;;;13.90;;
5507;SDS011;2776;51.046;6.772;2022-12-01T00:24:57;22.57;;;14.60;;
5507;SDS011;2776;51.046;6.772;2022-12-01T00:27:23;24.07;;;14.10;;
5507;SDS011;2776;51.046;6.772;2022-12-01T00:29:50;24.70;;;14.03;;
5507;SDS011;2776;51.046;6.772;2022-12-01T00:32:17;24.67;;;15.90;;
5507;SDS011;2776;51.046;6.772;2022-12-01T00:34:44;26.13;;;15.47;;
5507;SDS011;2776;51.046;6.772;2022-12-01T00:37:10;23.60;;;14.97;;
5507;SDS011;2776;51.046;6.772;2022-12-01T00:39:37;25.80;;;15.40;;
5507;SDS011;2776;51.046;6.772;2022-12-01T00:42:05;22.93;;;14.57;;
5507;SDS011;2776;51.046;6.772;2022-12-01T00:44:32;27.93;;;16.77;;
5507;SDS011;2776;51.046;6.772;2022-12-01T00:46:59;28.43;;;16.50;;
5507;SDS011;2776;51.046;6.772;2022-12-01T00:49:25;27.00;;;16.03;;
5507;SDS011;2776;51.046;6.772;2022-12-01T00:51:52;31.03;;;17.87;;
5507;SDS011;2776;51.046;6.772;2022-12-01T00:54:19;27.60;;;16.73;;
5507;SDS011;2776;51.046;6.772;2022-12-01T00:56:45;30.40;;;17.27;;
5507;SDS011;2776;51.046;6.772;2022-12-01T00:59:13;30.47;;;17.50;;
5507;SDS011;2776;51.046;6.772;2022-12-01T01:01:40;27.83;;;16.10;;
5507;SDS011;2776;51.046;6.772;2022-12-01T01:04:07;31.23;;;18.10;;
5507;SDS011;2776;51.046;6.772;2022-12-01T01:06:34;26.47;;;17.87;;
5507;SDS011;2776;51.046;6.772;2022-12-01T01:09:00;30.30;;;17.77;;
5507;SDS011;2776;51.046;6.772;2022-12-01T01:11:27;31.43;;;18.67;;
5507;SDS011;2776;51.046;6.772;2022-12-01T01:13:54;28.00;;;17.40;;
5507;SDS011;2776;51.046;6.772;2022-12-01T01:16:22;31.73;;;17.83;;
5507;SDS011;2776;51.046;6.772;2022-12-01T01:18:49;29.07;;;17.80;;
5507;SDS011;2776;51.046;6.772;2022-12-01T01:21:17;29.00;;;17.33;;
5507;SDS011;2776;51.046;6.772;2022-12-01T01:23:45;29.07;;;17.40;;
5507;SDS011;2776;51.046;6.772;2022-12-01T01:26:14;28.33;;;16.70;;
5507;SDS011;2776;51.046;6.772;2022-12-01T01:28:42;27.70;;;17.13;;
5507;SDS011;2776;51.046;6.772;2022-12-01T01:31:10;32.87;;;19.00;;
5507;SDS011;2776;51.046;6.772;2022-12-01T01:33:39;30.03;;;17.53;;
5507;SDS011;2776;51.046;6.772;2022-12-01T01:36:06;30.00;;;17.10;;
5507;SDS011;2776;51.046;6.772;2022-12-01T01:38:33;28.23;;;17.70;;
5507;SDS011;2776;51.046;6.772;2022-12-01T01:41:00;36.30;;;16.73;;
5507;SDS011;2776;51.046;6.772;2022-12-01T01:43:38;34.33;;;18.87;;
5507;SDS011;2776;51.046;6.772;2022-12-01T01:46:07;29.97;;;17.23;;
5507;SDS011;2776;51.046;6.772;2022-12-01T01:48:36;30.87;;;16.73;;
5507;SDS011;2776;51.046;6.772;2022-12-01T01:51:07;31.23;;;17.60;;
5507;SDS011;2776;51.046;6.772;2022-12-01T01:53:35;33.03;;;17.47;;
5507;SDS011;2776;51.046;6.772;2022-12-01T01:56:02;31.57;;;18.10;;
5507;SDS011;2776;51.046;6.772;2022-12-01T01:58:29;28.53;;;17.60;;
5507;SDS011;2776;51.046;6.772;2022-12-01T02:00:59;31.23;;;17.90;;
5507;SDS011;2776;51.046;6.772;2022-12-01T02:03:26;27.70;;;16.70;;
5507;SDS011;2776;51.046;6.772;2022-12-01T02:05:54;30.27;;;17.57;;
5507;SDS011;2776;51.046;6.772;2022-12-01T02:08:22;30.33;;;17.37;;
5507;SDS011;2776;51.046;6.772;2022-12-01T02:10:54;32.83;;;18.23;;
5507;SDS011;2776;51.046;6.772;2022-12-01T02:13:32;30.70;;;16.90;;
5507;SDS011;2776;51.046;6.772;2022-12-01T02:16:08;30.43;;;17.47;;
5507;SDS011;2776;51.046;6.772;2022-12-01T02:18:42;30.30;;;17.83;;
5507;SDS011;2776;51.046;6.772;2022-12-01T02:27:05;29.87;;;18.03;;
5507;SDS011;2776;51.046;6.772;2022-12-01T02:29:58;32.37;;;17.97;;
5507;SDS011;2776;51.046;6.772;2022-12-01T02:32:32;31.87;;;18.70;;
5507;SDS011;2776;51.046;6.772;2022-12-01T02:35:11;31.67;;;17.10;;
5507;SDS011;2776;51.046;6.772;2022-12-01T02:37:42;32.90;;;18.50;;
5507;SDS011;2776;51.046;6.772;2022-12-01T02:40:17;33.43;;;18.03;;
5507;SDS011;2776;51.046;6.772;2022-12-01T02:42:50;28.53;;;16.87;;
5507;SDS011;2776;51.046;6.772;2022-12-01T02:45:27;29.63;;;17.73;;
5507;SDS011;2776;51.046;6.772;2022-12-01T02:48:03;33.53;;;18.47;;
5507;SDS011;2776;51.046;6.772;2022-12-01T02:50:34;28.47;;;17.43;;
5507;SDS011;2776;51.046;6.772;2022-12-01T02:53:03;28.67;;;17.97;;
5507;SDS011;2776;51.046;6.772;2022-12-01T02:55:32;31.23;;;19.07;;
5507;SDS011;2776;51.046;6.772;2022-12-01T02:57:59;32.43;;;17.27;;
5507;SDS011;2776;51.046;6.772;2022-12-01T03:00:26;34.80;;;17.93;;
5507;SDS011;2776;51.046;6.772;2022-12-01T03:03:04;31.07;;;18.00;;
5507;SDS011;2776;51.046;6.772;2022-12-01T03:05:44;29.60;;;17.33;;
5507;SDS011;2776;51.046;6.772;2022-12-01T03:08:19;30.33;;;17.17;;
5507;SDS011;2776;51.046;6.772;2022-12-01T03:10:52;34.73;;;18.10;;
5507;SDS011;2776;51.046;6.772;2022-12-01T03:13:25;36.10;;;19.27;;
5507;SDS011;2776;51.046;6.772;2022-12-01T03:16:00;37.30;;;19.23;;
5507;SDS011;2776;51.046;6.772;2022-12-01T03:18:35;38.30;;;19.30;;
5507;SDS011;2776;51.046;6.772;2022-12-01T03:21:05;36.60;;;19.70;;
5507;SDS011;2776;51.046;6.772;2022-12-01T03:23:36;42.87;;;20.23;;
5507;SDS011;2776;51.046;6.772;2022-12-01T03:26:06;43.27;;;20.93;;
5507;SDS011;2776;51.046;6.772;2022-12-01T03:28:37;40.13;;;20.50;;
5507;SDS011;2776;51.046;6.772;2022-12-01T03:31:10;40.63;;;21.13;;
5507;SDS011;2776;51.046;6.772;2022-12-01T03:33:42;44.10;;;20.50;;
5507;SDS011;2776;51.046;6.772;2022-12-01T03:36:15;40.40;;;20.63;;
5507;SDS011;2776;51.046;6.772;2022-12-01T03:38:47;44.17;;;20.10;;
5507;SDS011;2776;51.046;6.772;2022-12-01T03:41:18;45.93;;;21.17;;
5507;SDS011;2776;51.046;6.772;2022-12-01T03:43:50;44.47;;;21.90;;
5507;SDS011;2776;51.046;6.772;2022-12-01T03:46:23;47.60;;;22.40;;
5507;SDS011;2776;51.046;6.772;2022-12-01T03:48:59;49.60;;;23.17;;
5507;SDS011;2776;51.046;6.772;2022-12-01T03:51:30;47.10;;;22.73;;
5507;SDS011;2776;51.046;6.772;2022-12-01T03:54:04;51.60;;;23.50;;
5507;SDS011;2776;51.046;6.772;2022-12-01T03:56:37;45.87;;;23.07;;
5507;SDS011;2776;51.046;6.772;2022-12-01T03:59:08;50.10;;;22.70;;
5507;SDS011;2776;51.046;6.772;2022-12-01T04:01:36;55.73;;;24.50;;
5507;SDS011;2776;51.046;6.772;2022-12-01T04:04:05;49.87;;;22.80;;
5507;SDS011;2776;51.046;6.772;2022-12-01T04:06:35;54.93;;;24.90;;
5507;SDS011;2776;51.046;6.772;2022-12-01T04:09:03;53.23;;;24.37;;
5507;SDS011;2776;51.046;6.772;2022-12-01T04:11:30;55.63;;;23.47;;
5507;SDS011;2776;51.046;6.772;2022-12-01T04:14:14;48.20;;;21.20;;
5507;SDS011;2776;51.046;6.772;2022-12-01T04:16:40;49.83;;;21.80;;
5507;SDS011;2776;51.046;6.772;2022-12-01T04:19:09;44.83;;;23.23;;
5507;SDS011;2776;51.046;6.772;2022-12-01T04:21:36;52.80;;;23.73;;
5507;SDS011;2776;51.046;6.772;2022-12-01T04:24:03;51.53;;;23.23;;
5507;SDS011;2776;51.046;6.772;2022-12-01T04:26:31;53.50;;;23.80;;
5507;SDS011;2776;51.046;6.772;2022-12-01T04:28:59;51.53;;;23.27;;
5507;SDS011;2776;51.046;6.772;2022-12-01T04:31:27;48.30;;;22.20;;
5507;SDS011;2776;51.046;6.772;2022-12-01T04:33:54;50.97;;;22.90;;
5507;SDS011;2776;51.046;6.772;2022-12-01T04:36:23;48.50;;;23.47;;
5507;SDS011;2776;51.046;6.772;2022-12-01T04:38:50;52.20;;;23.43;;
5507;SDS011;2776;51.046;6.772;2022-12-01T04:41:17;52.23;;;24.43;;
5507;SDS011;2776;51.046;6.772;2022-12-01T04:43:44;52.40;;;25.67;;
5507;SDS011;2776;51.046;6.772;2022-12-01T04:46:11;50.07;;;24.07;;
5507;SDS011;2776;51.046;6.772;2022-12-01T04:48:39;53.50;;;24.60;;
5507;SDS011;2776;51.046;6.772;2022-12-01T04:51:07;52.93;;;24.67;;
5507;SDS011;2776;51.046;6.772;2022-12-01T04:53:35;52.40;;;24.80;;
5507;SDS011;2776;51.046;6.772;2022-12-01T04:56:02;52.60;;;24.43;;
5507;SDS011;2776;51.046;6.772;2022-12-01T04:58:30;49.13;;;23.37;;
5507;SDS011;2776;51.046;6.772;2022-12-01T05:00:59;51.03;;;24.27;;
5507;SDS011;2776;51.046;6.772;2022-12-01T05:03:27;57.17;;;25.37;;
5507;SDS011;2776;51.046;6.772;2022-12-01T05:05:59;53.80;;;24.27;;
5507;SDS011;2776;51.046;6.772;2022-12-01T05:08:26;55.70;;;24.63;;
5507;SDS011;2776;51.046;6.772;2022-12-01T05:10:54;52.90;;;25.67;;
5507;SDS011;2776;51.046;6.772;2022-12-01T05:13:21;50.10;;;24.50;;
5507;SDS011;2776;51.046;6.772;2022-12-01T05:15:48;51.63;;;25.67;;
5507;SDS011;2776;51.046;6.772;2022-12-01T05:18:15;49.63;;;25.10;;
5507;SDS011;2776;51.046;6.772;2022-12-01T05:20:41;51.27;;;24.17;;
5507;SDS011;2776;51.046;6.772;2022-12-01T05:23:22;48.83;;;23.33;;
5507;SDS011;2776;51.046;6.772;2022-12-01T05:25:49;46.17;;;22.10;;
5507;SDS011;2776;51.046;6.772;2022-12-01T05:28:17;45.77;;;22.53;;
5507;SDS011;2776;51.046;6.772;2022-12-01T05:30:44;49.10;;;23.97;;
5507;SDS011;2776;51.046;6.772;2022-12-01T05:33:11;46.03;;;23.57;;
5507;SDS011;2776;51.046;6.772;2022-12-01T05:35:38;46.43;;;22.63;;
5507;SDS011;2776;51.046;6.772;2022-12-01T05:38:05;44.83;;;23.43;;
5507;SDS011;2776;51.046;6.772;2022-12-01T05:40:32;45.07;;;22.53;;
5507;SDS011;2776;51.046;6.772;2022-12-01T05:42:59;42.50;;;21.40;;
5507;SDS011;2776;51.046;6.772;2022-12-01T05:45:27;43.90;;;21.93;;
5507;SDS011;2776;51.046;6.772;2022-12-01T05:47:55;40.30;;;20.90;;
5507;SDS011;2776;51.046;6.772;2022-12-01T05:50:22;42.73;;;19.53;;
5507;SDS011;2776;51.046;6.772;2022-12-01T05:52:49;34.03;;;19.17;;
5507;SDS011;2776;51.046;6.772;2022-12-01T05:55:16;31.93;;;17.87;;
5507;SDS011;2776;51.046;6.772;2022-12-01T05:57:43;37.13;;;18.17;;
5507;SDS011;2776;51.046;6.772;2022-12-01T06:00:11;28.47;;;15.57;;
5507;SDS011;2776;51.046;6.772;2022-12-01T06:02:40;34.23;;;17.73;;
5507;SDS011;2776;51.046;6.772;2022-12-01T06:05:08;27.77;;;16.70;;
5507;SDS011;2776;51.046;6.772;2022-12-01T06:07:35;34.87;;;17.27;;
5507;SDS011;2776;51.046;6.772;2022-12-01T06:10:04;30.23;;;17.23;;
5507;SDS011;2776;51.046;6.772;2022-12-01T06:12:32;28.80;;;17.33;;
5507;SDS011;2776;51.046;6.772;2022-12-01T06:14:59;28.80;;;16.67;;
5507;SDS011;2776;51.046;6.772;2022-12-01T06:17:25;28.87;;;15.63;;
5507;SDS011;2776;51.046;6.772;2022-12-01T06:19:54;31.43;;;15.20;;
5507;SDS011;2776;51.046;6.772;2022-12-01T06:22:20;28.00;;;15.23;;
5507;SDS011;2776;51.046;6.772;2022-12-01T06:24:47;31.33;;;16.50;;
5507;SDS011;2776;51.046;6.772;2022-12-01T06:27:14;25.20;;;16.00;;
5507;SDS011;2776;51.046;6.772;2022-12-01T06:29:41;27.57;;;15.50;;
5507;SDS011;2776;51.046;6.772;2022-12-01T06:32:08;26.37;;;15.70;;
5507;SDS011;2776;51.046;6.772;2022-12-01T06:34:34;29.43;;;17.13;;
5507;SDS011;2776;51.046;6.772;2022-12-01T06:37:03;27.83;;;16.60;;
5507;SDS011;2776;51.046;6.772;2022-12-01T06:39:29;29.57;;;17.23;;
5507;SDS011;2776;51.046;6.772;2022-12-01T06:41:56;28.17;;;16.70;;
5507;SDS011;2776;51.046;6.772;2022-12-01T06:44:23;28.00;;;17.40;;
5507;SDS011;2776;51.046;6.772;2022-12-01T06:46:50;27.33;;;17.10;;
5507;SDS011;2776;51.046;6.772;2022-12-01T06:49:17;33.03;;;17.20;;
5507;SDS011;2776;51.046;6.772;2022-12-01T06:51:45;33.00;;;18.30;;
5507;SDS011;2776;51.046;6.772;2022-12-01T06:54:13;28.10;;;17.87;;
5507;SDS011;2776;51.046;6.772;2022-12-01T06:56:41;27.43;;;17.47;;
5507;SDS011;2776;51.046;6.772;2022-12-01T06:59:09;32.23;;;19.33;;
5507;SDS011;2776;51.046;6.772;2022-12-01T07:01:36;31.23;;;19.20;;
5507;SDS011;2776;51.046;6.772;2022-12-01T07:04:03;32.73;;;19.13;;
5507;SDS011;2776;51.046;6.772;2022-12-01T07:06:30;31.33;;;19.20;;
5507;SDS011;2776;51.046;6.772;2022-12-01T07:08:57;41.07;;;21.60;;
5507;SDS011;2776;51.046;6.772;2022-12-01T07:11:25;33.50;;;19.10;;
5507;SDS011;2776;51.046;6.772;2022-12-01T07:13:53;32.13;;;18.93;;
5507;SDS011;2776;51.046;6.772;2022-12-01T07:16:20;36.23;;;19.43;;
5507;SDS011;2776;51.046;6.772;2022-12-01T07:18:47;34.90;;;18.50;;
5507;SDS011;2776;51.046;6.772;2022-12-01T07:21:14;33.43;;;18.47;;
5507;SDS011;2776;51.046;6.772;2022-12-01T07:23:41;33.00;;;18.57;;
5507;SDS011;2776;51.046;6.772;2022-12-01T07:26:09;34.43;;;19.13;;
5507;SDS011;2776;51.046;6.772;2022-12-01T07:28:39;35.20;;;19.17;;
5507;SDS011;2776;51.046;6.772;2022-12-01T07:31:06;32.03;;;18.07;;
5507;SDS011;2776;51.046;6.772;2022-12-01T07:33:34;32.73;;;18.63;;
5507;SDS011;2776;51.046;6.772;2022-12-01T07:36:01;32.13;;;17.87;;
5507;SDS011;2776;51.046;6.772;2022-12-01T07:38:28;31.47;;;18.30;;
5507;SDS011;2776;51.046;6.772;2022-12-01T07:40:59;29.97;;;17.50;;
5507;SDS011;2776;51.046;6.772;2022-12-01T07:43:28;30.53;;;17.70;;
5507;SDS011;2776;51.046;6.772;2022-12-01T07:46:01;30.33;;;18.87;;
5507;SDS011;2776;51.046;6.772;2022-12-01T07:48:29;32.63;;;19.00;;
5507;SDS011;2776;51.046;6.772;2022-12-01T07:50:56;28.00;;;18.20;;
5507;SDS011;2776;51.046;6.772;2022-12-01T07:53:22;32.27;;;18.40;;
5507;SDS011;2776;51.046;6.772;2022-12-01T07:55:49;34.80;;;20.63;;
5507;SDS011;2776;51.046;6.772;2022-12-01T07:58:16;31.40;;;18.07;;
5507;SDS011;2776;51.046;6.772;2022-12-01T08:00:43;29.77;;;18.23;;
5507;SDS011;2776;51.046;6.772;2022-12-01T08:03:11;31.73;;;17.83;;
5507;SDS011;2776;51.046;6.772;2022-12-01T08:05:38;30.90;;;17.13;;
5507;SDS011;2776;51.046;6.772;2022-12-01T08:08:05;28.60;;;16.63;;
5507;SDS011;2776;51.046;6.772;2022-12-01T08:10:32;32.83;;;18.07;;
5507;SDS011;2776;51.046;6.772;2022-12-01T08:12:59;30.80;;;17.53;;
5507;SDS011;2776;51.046;6.772;2022-12-01T08:15:25;31.70;;;18.53;;
5507;SDS011;2776;51.046;6.772;2022-12-01T08:17:52;31.57;;;17.87;;
5507;SDS011;2776;51.046;6.772;2022-12-01T08:20:20;29.83;;;19.40;;
5507;SDS011;2776;51.046;6.772;2022-12-01T08:22:47;30.60;;;18.23;;
5507;SDS011;2776;51.046;6.772;2022-12-01T08:25:14;36.10;;;20.97;;
5507;SDS011;2776;51.046;6.772;2022-12-01T08:27:41;35.70;;;19.97;;
5507;SDS011;2776;51.046;6.772;2022-12-01T08:30:08;32.70;;;18.20;;
5507;SDS011;2776;51.046;6.772;2022-12-01T08:32:35;36.37;;;20.30;;
5507;SDS011;2776;51.046;6.772;2022-12-01T08:35:02;35.27;;;19.80;;
5507;SDS011;2776;51.046;6.772;2022-12-01T08:37:30;37.93;;;19.87;;
5507;SDS011;2776;51.046;6.772;2022-12-01T08:39:57;37.77;;;19.90;;
5507;SDS011;2776;51.046;6.772;2022-12-01T08:42:23;37.27;;;19.40;;
5507;SDS011;2776;51.046;6.772;2022-12-01T08:44:50;36.33;;;20.30;;
5507;SDS011;2776;51.046;6.772;2022-12-01T08:47:17;42.10;;;23.00;;
5507;SDS011;2776;51.046;6.772;2022-12-01T08:49:44;37.23;;;20.63;;
5507;SDS011;2776;51.046;6.772;2022-12-01T08:52:11;39.03;;;19.87;;
5507;SDS011;2776;51.046;6.772;2022-12-01T08:54:39;38.50;;;20.60;;
5507;SDS011;2776;51.046;6.772;2022-12-01T08:57:06;35.90;;;20.20;;
5507;SDS011;2776;51.046;6.772;2022-12-01T08:59:32;37.13;;;20.60;;
5507;SDS011;2776;51.046;6.772;2022-12-01T09:01:59;38.70;;;19.90;;
5507;SDS011;2776;51.046;6.772;2022-12-01T09:04:26;37.10;;;19.77;;
5507;SDS011;2776;51.046;6.772;2022-12-01T09:06:54;36.60;;;19.37;;
5507;SDS011;2776;51.046;6.772;2022-12-01T09:09:22;39.30;;;20.03;;
5507;SDS011;2776;51.046;6.772;2022-12-01T09:11:52;36.17;;;19.67;;
5507;SDS011;2776;51.046;6.772;2022-12-01T09:14:20;43.60;;;20.37;;
5507;SDS011;2776;51.046;6.772;2022-12-01T09:16:48;43.53;;;20.60;;
5507;SDS011;2776;51.046;6.772;2022-12-01T09:19:16;39.67;;;20.80;;
5507;SDS011;2776;51.046;6.772;2022-12-01T09:21:44;40.47;;;20.20;;
5507;SDS011;2776;51.046;6.772;2022-12-01T09:24:12;40.80;;;20.97;;
5507;SDS011;2776;51.046;6.772;2022-12-01T09:26:40;42.27;;;21.73;;
5507;SDS011;2776;51.046;6.772;2022-12-01T09:29:09;36.70;;;20.33;;
5507;SDS011;2776;51.046;6.772;2022-12-01T09:31:37;40.33;;;22.10;;
5507;SDS011;2776;51.046;6.772;2022-12-01T09:34:06;40.60;;;20.43;;
5507;SDS011;2776;51.046;6.772;2022-12-01T09:36:34;43.27;;;21.20;;
5507;SDS011;2776;51.046;6.772;2022-12-01T09:39:02;38.43;;;20.17;;
5507;SDS011;2776;51.046;6.772;2022-12-01T09:41:31;41.97;;;20.37;;
5507;SDS011;2776;51.046;6.772;2022-12-01T09:44:03;41.37;;;19.93;;
5507;SDS011;2776;51.046;6.772;2022-12-01T09:46:39;39.43;;;19.17;;
5507;SDS011;2776;51.046;6.772;2022-12-01T09:49:14;41.37;;;20.97;;
5507;SDS011;2776;51.046;6.772;2022-12-01T09:51:43;35.70;;;18.77;;
5507;SDS011;2776;51.046;6.772;2022-12-01T09:54:11;40.60;;;20.47;;
5507;SDS011;2776;51.046;6.772;2022-12-01T09:56:41;30.40;;;17.13;;
5507;SDS011;2776;51.046;6.772;2022-12-01T09:59:12;34.30;;;17.67;;
5507;SDS011;2776;51.046;6.772;2022-12-01T10:01:50;34.13;;;17.83;;
5507;SDS011;2776;51.046;6.772;2022-12-01T10:04:21;35.70;;;18.07;;
5507;SDS011;2776;51.046;6.772;2022-12-01T10:06:56;33.07;;;18.97;;
5507;SDS011;2776;51.046;6.772;2022-12-01T10:09:26;35.73;;;17.70;;
5507;SDS011;2776;51.046;6.772;2022-12-01T10:12:00;32.73;;;19.33;;
5507;SDS011;2776;51.046;6.772;2022-12-01T10:14:33;32.63;;;17.33;;
5507;SDS011;2776;51.046;6.772;2022-12-01T10:17:05;38.27;;;20.93;;
5507;SDS011;2776;51.046;6.772;2022-12-01T10:19:51;32.83;;;18.40;;
5507;SDS011;2776;51.046;6.772;2022-12-01T10:22:32;30.47;;;16.60;;
5507;SDS011;2776;51.046;6.772;2022-12-01T10:25:20;26.93;;;14.97;;
5507;SDS011;2776;51.046;6.772;2022-12-01T10:27:52;32.27;;;15.50;;
5507;SDS011;2776;51.046;6.772;2022-12-01T10:30:29;30.30;;;15.53;;
5507;SDS011;2776;51.046;6.772;2022-12-01T10:32:59;31.17;;;15.00;;
5507;SDS011;2776;51.046;6.772;2022-12-01T10:35:31;25.07;;;14.07;;
5507;SDS011;2776;51.046;6.772;2022-12-01T10:38:01;25.93;;;14.40;;
5507;SDS011;2776;51.046;6.772;2022-12-01T10:40:30;30.10;;;15.80;;
5507;SDS011;2776;51.046;6.772;2022-12-01T10:42:59;23.33;;;13.27;;
5507;SDS011;2776;51.046;6.772;2022-12-01T10:45:27;23.67;;;12.80;;
5507;SDS011;2776;51.046;6.772;2022-12-01T10:48:08;22.30;;;12.93;;
5507;SDS011;2776;51.046;6.772;2022-12-01T10:50:39;21.07;;;12.33;;
5507;SDS011;2776;51.046;6.772;2022-12-01T10:53:08;22.63;;;12.50;;
5507;SDS011;2776;51.046;6.772;2022-12-01T10:55:56;21.13;;;12.17;;
5507;SDS011;2776;51.046;6.772;2022-12-01T10:58:27;19.57;;;12.63;;
5507;SDS011;2776;51.046;6.772;2022-12-01T11:00:56;23.77;;;13.13;;
5507;SDS011;2776;51.046;6.772;2022-12-01T11:03:26;21.50;;;12.73;;
5507;SDS011;2776;51.046;6.772;2022-12-01T11:05:54;24.27;;;12.30;;
5507;SDS011;2776;51.046;6.772;2022-12-01T11:08:23;21.57;;;12.73;;
5507;SDS011;2776;51.046;6.772;2022-12-01T11:11:01;21.17;;;13.37;;
5507;SDS011;2776;51.046;6.772;2022-12-01T11:13:28;24.00;;;13.47;;
5507;SDS011;2776;51.046;6.772;2022-12-01T11:15:57;23.30;;;13.33;;
5507;SDS011;2776;51.046;6.772;2022-12-01T11:18:28;22.23;;;14.37;;
5507;SDS011;2776;51.046;6.772;2022-12-01T11:21:06;24.30;;;13.87;;
5507;SDS011;2776;51.046;6.772;2022-12-01T11:23:35;21.70;;;13.53;;
5507;SDS011;2776;51.046;6.772;2022-12-01T11:26:10;20.30;;;14.10;;
5507;SDS011;2776;51.046;6.772;2022-12-01T11:28:41;29.10;;;15.50;;
5507;SDS011;2776;51.046;6.772;2022-12-01T11:31:16;30.53;;;15.27;;
5507;SDS011;2776;51.046;6.772;2022-12-01T11:33:45;22.03;;;14.33;;
5507;SDS011;2776;51.046;6.772;2022-12-01T11:36:18;25.07;;;15.23;;
5507;SDS011;2776;51.046;6.772;2022-12-01T11:38:47;26.13;;;14.57;;
5507;SDS011;2776;51.046;6.772;2022-12-01T11:41:22;23.27;;;14.23;;
5507;SDS011;2776;51.046;6.772;2022-12-01T11:43:53;25.47;;;14.90;;
5507;SDS011;2776;51.046;6.772;2022-12-01T11:46:26;24.93;;;15.60;;
5507;SDS011;2776;51.046;6.772;2022-12-01T11:48:57;26.03;;;16.17;;
5507;SDS011;2776;51.046;6.772;2022-12-01T11:51:26;27.10;;;16.23;;
5507;SDS011;2776;51.046;6.772;2022-12-01T11:54:03;27.20;;;16.10;;
5507;SDS011;2776;51.046;6.772;2022-12-01T11:56:39;28.60;;;15.90;;
5507;SDS011;2776;51.046;6.772;2022-12-01T11:59:09;25.37;;;15.80;;
5507;SDS011;2776;51.046;6.772;2022-12-01T12:01:39;25.60;;;16.10;;
5507;SDS011;2776;51.046;6.772;2022-12-01T12:04:20;27.40;;;16.13;;
5507;SDS011;2776;51.046;6.772;2022-12-01T12:06:56;25.13;;;15.97;;
5507;SDS011;2776;51.046;6.772;2022-12-01T12:09:34;26.03;;;16.40;;
5507;SDS011;2776;51.046;6.772;2022-12-01T12:12:13;21.00;;;15.07;;
5507;SDS011;2776;51.046;6.772;2022-12-01T12:15:01;28.73;;;17.60;;
5507;SDS011;2776;51.046;6.772;2022-12-01T12:17:41;23.53;;;16.30;;
5507;SDS011;2776;51.046;6.772;2022-12-01T12:23:19;26.03;;;17.03;;
5507;SDS011;2776;51.046;6.772;2022-12-01T12:25:56;30.30;;;18.60;;
5507;SDS011;2776;51.046;6.772;2022-12-01T12:28:35;26.33;;;18.60;;
5507;SDS011;2776;51.046;6.772;2022-12-01T12:31:17;27.37;;;18.23;;
5507;SDS011;2776;51.046;6.772;2022-12-01T12:33:59;28.07;;;19.23;;
5507;SDS011;2776;51.046;6.772;2022-12-01T12:36:36;25.83;;;17.23;;
5507;SDS011;2776;51.046;6.772;2022-12-01T12:39:14;30.13;;;19.07;;
5507;SDS011;2776;51.046;6.772;2022-12-01T12:41:52;28.00;;;19.10;;
5507;SDS011;2776;51.046;6.772;2022-12-01T12:47:16;25.60;;;17.93;;
5507;SDS011;2776;51.046;6.772;2022-12-01T12:49:52;27.90;;;17.83;;
5507;SDS011;2776;51.046;6.772;2022-12-01T12:52:29;26.33;;;18.07;;
5507;SDS011;2776;51.046;6.772;2022-12-01T12:54:59;24.83;;;17.27;;
5507;SDS011;2776;51.046;6.772;2022-12-01T12:57:36;32.07;;;18.57;;
5507;SDS011;2776;51.046;6.772;2022-12-01T13:00:07;29.17;;;19.00;;
5507;SDS011;2776;51.046;6.772;2022-12-01T13:02:40;37.10;;;23.37;;
5507;SDS011;2776;51.046;6.772;2022-12-01T13:05:14;36.17;;;22.00;;
5507;SDS011;2776;51.046;6.772;2022-12-01T13:07:46;31.97;;;19.10;;
5507;SDS011;2776;51.046;6.772;2022-12-01T13:10:20;30.97;;;20.13;;
5507;SDS011;2776;51.046;6.772;2022-12-01T13:12:52;33.50;;;20.67;;
5507;SDS011;2776;51.046;6.772;2022-12-01T13:15:23;30.73;;;19.80;;
5507;SDS011;2776;51.046;6.772;2022-12-01T13:17:52;34.83;;;19.80;;
5507;SDS011;2776;51.046;6.772;2022-12-01T13:20:22;38.00;;;20.50;;
5507;SDS011;2776;51.046;6.772;2022-12-01T13:22:52;33.60;;;20.83;;
5507;SDS011;2776;51.046;6.772;2022-12-01T13:25:23;38.00;;;21.53;;
5507;SDS011;2776;51.046;6.772;2022-12-01T13:27:53;34.53;;;20.60;;
5507;SDS011;2776;51.046;6.772;2022-12-01T13:30:22;35.00;;;21.70;;
5507;SDS011;2776;51.046;6.772;2022-12-01T13:32:56;37.23;;;22.23;;
5507;SDS011;2776;51.046;6.772;2022-12-01T13:35:26;41.93;;;22.93;;
5507;SDS011;2776;51.046;6.772;2022-12-01T13:38:11;36.07;;;21.17;;
5507;SDS011;2776;51.046;6.772;2022-12-01T13:40:46;40.20;;;23.50;;
5507;SDS011;2776;51.046;6.772;2022-12-01T13:43:15;38.70;;;23.37;;
5507;SDS011;2776;51.046;6.772;2022-12-01T13:45:44;40.20;;;24.87;;
5507;SDS011;2776;51.046;6.772;2022-12-01T13:50:55;42.43;;;25.10;;
5507;SDS011;2776;51.046;6.772;2022-12-01T13:53:26;44.87;;;25.13;;
5507;SDS011;2776;51.046;6.772;2022-12-01T13:55:59;48.00;;;27.60;;
5507;SDS011;2776;51.046;6.772;2022-12-01T13:58:44;43.93;;;24.50;;
5507;SDS011;2776;51.046;6.772;2022-12-01T14:07:21;35.87;;;22.70;;
5507;SDS011;2776;51.046;6.772;2022-12-01T14:09:56;40.90;;;23.63;;
5507;SDS011;2776;51.046;6.772;2022-12-01T14:12:32;41.67;;;24.40;;
5507;SDS011;2776;51.046;6.772;2022-12-01T14:15:03;41.13;;;22.97;;
5507;SDS011;2776;51.046;6.772;2022-12-01T14:17:45;39.60;;;23.33;;
5507;SDS011;2776;51.046;6.772;2022-12-01T14:20:16;40.20;;;23.43;;
5507;SDS011;2776;51.046;6.772;2022-12-01T14:22:47;40.93;;;24.77;;
5507;SDS011;2776;51.046;6.772;2022-12-01T14:25:30;41.93;;;24.27;;
5507;SDS011;2776;51.046;6.772;2022-12-01T14:27:57;38.53;;;23.80;;
5507;SDS011;2776;51.046;6.772;2022-12-01T14:33:45;39.93;;;23.63;;
5507;SDS011;2776;51.046;6.772;2022-12-01T14:36:21;42.33;;;25.63;;
5507;SDS011;2776;51.046;6.772;2022-12-01T14:38:59;40.83;;;25.23;;
5507;SDS011;2776;51.046;6.772;2022-12-01T14:41:32;47.43;;;27.77;;
5507;SDS011;2776;51.046;6.772;2022-12-01T14:44:11;45.30;;;26.00;;
5507;SDS011;2776;51.046;6.772;2022-12-01T14:46:44;44.73;;;25.40;;
5507;SDS011;2776;51.046;6.772;2022-12-01T14:49:16;45.60;;;26.20;;
5507;SDS011;2776;51.046;6.772;2022-12-01T14:51:47;44.07;;;25.63;;
5507;SDS011;2776;51.046;6.772;2022-12-01T14:54:19;45.07;;;27.80;;
5507;SDS011;2776;51.046;6.772;2022-12-01T14:56:51;44.33;;;26.13;;
5507;SDS011;2776;51.046;6.772;2022-12-01T14:59:21;45.53;;;27.53;;
5507;SDS011;2776;51.046;6.772;2022-12-01T15:01:51;49.60;;;27.03;;
5507;SDS011;2776;51.046;6.772;2022-12-01T15:04:19;48.50;;;28.87;;
5507;SDS011;2776;51.046;6.772;2022-12-01T15:06:51;45.77;;;28.10;;
5507;SDS011;2776;51.046;6.772;2022-12-01T15:09:19;46.10;;;27.50;;
5507;SDS011;2776;51.046;6.772;2022-12-01T15:11:48;47.70;;;27.33;;
5507;SDS011;2776;51.046;6.772;2022-12-01T15:14:23;52.53;;;28.57;;
5507;SDS011;2776;51.046;6.772;2022-12-01T15:16:58;49.87;;;28.27;;
5507;SDS011;2776;51.046;6.772;2022-12-01T15:19:30;46.67;;;27.77;;
5507;SDS011;2776;51.046;6.772;2022-12-01T15:22:02;51.70;;;28.63;;
5507;SDS011;2776;51.046;6.772;2022-12-01T15:24:31;50.80;;;28.60;;
5507;SDS011;2776;51.046;6.772;2022-12-01T15:26:58;51.53;;;29.00;;
5507;SDS011;2776;51.046;6.772;2022-12-01T15:29:28;49.23;;;28.60;;